TimeCDT,TemperatureF,Dew PointF,Humidity,Sea Level PressureIn,VisibilityMPH,Wind Direction,Wind SpeedMPH,Gust SpeedMPH,PrecipitationIn,Events,Conditions,WindDirDegrees,DateUTC
12:15 AM,57.4,47.3,69,30.02,10.0,SE,3.5,-,N/A,,Clear,140,2013-05-08 05:15:00
12:35 AM,57.4,46.8,68,30.01,10.0,SE,3.5,-,N/A,,Clear,140,2013-05-08 05:35:00
12:55 AM,54.5,47.5,77,30.01,10.0,Calm,Calm,-,N/A,,Clear,0,2013-05-08 05:55:00
1:15 AM,54.7,46.8,75,30.01,10.0,Calm,Calm,-,N/A,,Clear,0,2013-05-08 06:15:00
1:35 AM,55.6,46.6,72,30.01,10.0,Calm,Calm,-,N/A,,Clear,0,2013-05-08 06:35:00
1:55 AM,56.3,46.2,69,30.00,10.0,Calm,Calm,-,N/A,,Clear,0,2013-05-08 06:55:00
2:15 AM,55.6,45.0,67,30.00,10.0,Calm,Calm,-,N/A,,Clear,0,2013-05-08 07:15:00
2:35 AM,54.7,46.4,74,30.01,10.0,Calm,Calm,-,N/A,,Clear,0,2013-05-08 07:35:00
2:55 AM,53.2,45.9,76,30.01,10.0,Calm,Calm,-,N/A,,Clear,0,2013-05-08 07:55:00
3:15 AM,53.1,43.5,70,30.01,10.0,Calm,Calm,-,N/A,,Clear,0,2013-05-08 08:15:00
3:35 AM,52.5,43.7,72,30.01,10.0,Calm,Calm,-,N/A,,Clear,0,2013-05-08 08:35:00
3:55 AM,52.9,43.5,71,30.01,10.0,Calm,Calm,-,N/A,,Clear,0,2013-05-08 08:55:00
4:15 AM,51.8,44.1,75,30.02,10.0,Calm,Calm,-,N/A,,Clear,0,2013-05-08 09:15:00
4:35 AM,51.1,44.6,78,30.02,10.0,Calm,Calm,-,N/A,,Clear,0,2013-05-08 09:35:00
4:55 AM,50.9,44.2,78,30.02,10.0,Calm,Calm,-,N/A,,Clear,0,2013-05-08 09:55:00
5:15 AM,50.5,43.9,78,30.02,10.0,Calm,Calm,-,N/A,,Clear,0,2013-05-08 10:15:00
5:35 AM,50.4,44.6,81,30.02,10.0,Calm,Calm,-,N/A,,Clear,0,2013-05-08 10:35:00
5:55 AM,51.6,43.9,75,30.03,10.0,Calm,Calm,-,N/A,,Clear,0,2013-05-08 10:55:00
6:15 AM,51.8,45.3,79,30.03,10.0,Calm,Calm,-,N/A,,Clear,0,2013-05-08 11:15:00
6:35 AM,52.2,45.7,79,30.04,10.0,Calm,Calm,-,N/A,,Clear,0,2013-05-08 11:35:00
6:55 AM,53.8,48.2,81,30.04,10.0,Calm,Calm,-,N/A,,Clear,0,2013-05-08 11:55:00
7:15 AM,55.6,47.7,75,30.04,10.0,Calm,Calm,-,N/A,,Clear,0,2013-05-08 12:15:00
7:35 AM,57.9,47.1,67,30.05,10.0,Calm,Calm,-,N/A,,Clear,0,2013-05-08 12:35:00
7:55 AM,60.6,46.0,59,30.05,10.0,Calm,Calm,-,N/A,,Clear,0,2013-05-08 12:55:00
8:15 AM,62.6,46.0,55,30.05,10.0,Calm,Calm,-,N/A,,Clear,0,2013-05-08 13:15:00
8:35 AM,65.5,45.3,48,30.05,10.0,Calm,Calm,-,N/A,,Clear,0,2013-05-08 13:35:00
8:55 AM,67.6,43.9,42,30.05,10.0,Calm,Calm,-,N/A,,Clear,0,2013-05-08 13:55:00
9:15 AM,70.2,44.8,40,30.05,10.0,SSE,4.6,-,N/A,,Clear,150,2013-05-08 14:15:00
9:35 AM,71.2,44.8,39,30.04,10.0,SSW,4.6,-,N/A,,Clear,210,2013-05-08 14:35:00
9:55 AM,72.0,46.6,40,30.04,10.0,SW,3.5,-,N/A,,Clear,220,2013-05-08 14:55:00
10:15 AM,73.2,46.2,38,30.04,10.0,Calm,Calm,-,N/A,,Clear,0,2013-05-08 15:15:00
10:35 AM,73.9,43.9,34,30.04,10.0,Calm,Calm,-,N/A,,Clear,0,2013-05-08 15:35:00
10:55 AM,74.7,44.2,34,30.04,10.0,Calm,Calm,-,N/A,,Clear,0,2013-05-08 15:55:00
11:15 AM,75.4,43.5,32,30.04,10.0,Calm,Calm,-,N/A,,Clear,0,2013-05-08 16:15:00
11:35 AM,76.3,41.5,29,30.04,10.0,Calm,Calm,-,N/A,,Clear,0,2013-05-08 16:35:00
11:55 AM,77.2,42.6,29,30.03,10.0,Calm,Calm,-,N/A,,Clear,0,2013-05-08 16:55:00
12:15 PM,77.9,39.6,25,30.03,7.0,Calm,Calm,-,N/A,,Clear,0,2013-05-08 17:15:00
12:35 PM,78.1,37.4,23,30.02,10.0,Calm,Calm,-,N/A,,Clear,0,2013-05-08 17:35:00
12:55 PM,78.3,37.8,23,30.01,10.0,Calm,Calm,-,N/A,,Clear,0,2013-05-08 17:55:00
1:15 PM,76.6,37.8,25,30.01,10.0,Calm,Calm,-,N/A,,Scattered Clouds,0,2013-05-08 18:15:00
1:35 PM,79.0,37.6,23,30.01,10.0,Calm,Calm,-,N/A,,Scattered Clouds,0,2013-05-08 18:35:00
1:55 PM,79.2,36.9,22,30.00,10.0,Calm,Calm,-,N/A,,Clear,0,2013-05-08 18:55:00
2:15 PM,79.9,37.4,22,30.00,10.0,West,6.9,-,N/A,,Clear,270,2013-05-08 19:15:00
2:35 PM,79.5,36.5,21,30.00,10.0,Calm,Calm,-,N/A,,Clear,0,2013-05-08 19:35:00
2:55 PM,79.2,37.0,22,29.99,10.0,SSE,4.6,-,N/A,,Clear,150,2013-05-08 19:55:00
3:15 PM,79.7,36.5,21,29.99,10.0,West,4.6,-,N/A,,Clear,280,2013-05-08 20:15:00
3:35 PM,79.5,36.9,22,29.98,10.0,Calm,Calm,-,N/A,,Scattered Clouds,0,2013-05-08 20:35:00
3:55 PM,79.7,36.3,21,29.98,10.0,West,4.6,-,N/A,,Scattered Clouds,270,2013-05-08 20:55:00
4:15 PM,78.8,36.0,21,29.98,10.0,Calm,Calm,-,N/A,,Scattered Clouds,0,2013-05-08 21:15:00
4:35 PM,79.2,36.1,21,29.97,10.0,West,4.6,-,N/A,,Scattered Clouds,280,2013-05-08 21:35:00
4:55 PM,79.2,35.4,21,29.97,10.0,Calm,Calm,-,N/A,,Scattered Clouds,0,2013-05-08 21:55:00
5:15 PM,79.0,36.1,21,29.97,10.0,Calm,Calm,-,N/A,,Clear,0,2013-05-08 22:15:00
5:35 PM,78.8,38.5,24,29.97,10.0,WNW,4.6,-,N/A,,Clear,300,2013-05-08 22:35:00
5:55 PM,78.8,37.6,23,29.97,10.0,WNW,3.5,-,N/A,,Scattered Clouds,290,2013-05-08 22:55:00
6:15 PM,78.4,35.4,21,29.97,10.0,Calm,Calm,-,N/A,,Clear,0,2013-05-08 23:15:00
6:35 PM,78.8,38.1,23,29.96,10.0,West,5.8,-,N/A,,Clear,260,2013-05-08 23:35:00
6:55 PM,76.6,41.5,28,29.97,10.0,WNW,4.6,-,N/A,,Clear,290,2013-05-08 23:55:00
7:15 PM,75.6,43.0,31,29.96,10.0,NW,3.5,-,N/A,,Clear,310,2013-05-09 00:15:00
7:35 PM,74.8,42.4,31,29.97,10.0,Calm,Calm,-,N/A,,Clear,0,2013-05-09 00:35:00
7:55 PM,73.9,43.7,34,29.97,10.0,Calm,Calm,-,N/A,,Clear,0,2013-05-09 00:55:00
8:15 PM,72.1,46.0,39,29.97,10.0,Calm,Calm,-,N/A,,Clear,0,2013-05-09 01:15:00
8:35 PM,71.8,45.5,39,29.98,10.0,Calm,Calm,-,N/A,,Clear,0,2013-05-09 01:35:00
8:55 PM,72.0,41.7,34,29.98,10.0,Calm,Calm,-,N/A,,Clear,0,2013-05-09 01:55:00
9:15 PM,67.3,49.5,53,29.99,7.0,Calm,Calm,-,N/A,,Clear,0,2013-05-09 02:15:00
9:35 PM,66.6,46.8,49,29.99,10.0,SE,6.9,-,N/A,,Clear,130,2013-05-09 02:35:00
9:55 PM,66.7,47.3,50,29.99,10.0,ESE,10.4,-,N/A,,Clear,110,2013-05-09 02:55:00
10:15 PM,66.0,47.5,51,29.99,10.0,ESE,9.2,-,N/A,,Clear,120,2013-05-09 03:15:00
10:55 PM,63.7,47.7,56,29.99,10.0,SE,8.1,-,N/A,,Clear,140,2013-05-09 03:55:00
11:35 PM,61.7,47.5,60,29.98,10.0,ESE,5.8,-,N/A,,Clear,120,2013-05-09 04:35:00
11:55 PM,60.8,47.5,62,29.98,10.0,ESE,8.1,-,N/A,,Clear,120,2013-05-09 04:55:00